Dry Creek, WV (25062)

7:06 AM EST on December 05, 2016 (GMT -0500)
Fairdale | | Change Station

Elev 1938 ft 37.74 °N, 81.35 °W | Updated 0 second ago

Overcast
Overcast
44.1 °F
Feels Like 44 °F
N
0.0
Wind Variable Wind from ESE
Gusts 0.0 mph

Today
High -- | Low -- °F
--% Chance of Precip.
Yesterday
High -- | Low -- °F
Precip. -- in
Pressure 30.06 in
Visibility 10.0 miles
Clouds Scattered Clouds 1200 ft
Mostly Cloudy 1700 ft
Overcast 2400 ft
Windchill 44 °F
Dew Point 39 °F
Humidity 82%
Rainfall 0.08 in
Snow Depth Not available.
7:26 AM 5:06 PM
Waxing Crescent, 31% visible
METAR KBKW 051151Z AUTO 28010KT 10SM SCT012 BKN017 OVC024 06/03 A3001 RMK AO2 SLP177 70012 T00560033 10067 20056 52012
Pressure 30.06 in
Visibility 10.0 miles
Clouds Scattered Clouds 1200 ft
Mostly Cloudy 1700 ft
Overcast 2400 ft
Windchill 44 °F
Dew Point 39 °F
Humidity 82%
Rainfall 0.08 in
Snow Depth Not available.
7:26 AM 5:06 PM
Waxing Crescent, 31% visible
METAR KBKW 051151Z AUTO 28010KT 10SM SCT012 BKN017 OVC024 06/03 A3001 RMK AO2 SLP177 70012 T00560033 10067 20056 52012

10-Day Weather Forecast

Almanac

Astronomy

Dec. 05, 2016 Rise Set
Actual Time
Civil Twilight
Nautical Twilight
Astronomical Twilight
Moon
Length of Visible Light
Length of Day
Tomorrow will be .
, % of the Moon is Illuminated

Today's Extremes

State Highs State Lows

Community

WunderPhotos

Upload Photos

1,955,779 photos uploaded!

WunderBlog® & News

Nearby

Air Quality

  Air Quality AQ Index Pollutant
Not available.

Snow Depth

Station Depth Elevation

Earthquake Activity

City Distance Mag. Time & Date
Minimum magnitude displayed is 2.5.

Coastal Water Temperatures

Place Temperature

Stations

Nearby Weather Stations

Station Location Temp. Windchill Dew Point Humidity Wind Precip. Elev Updated Type
                   

Watches & Warnings

There are currently no watches in effect.